Time;durP1;ratioP1;P1;durP2;ratioP2;P2;SDS_P1;SDS_P2;PMS_P1;PMS_P2;Temp;Humidity;BMP_temperature;BMP_pressure;BME280_temperature;BME280_humidity;BME280_pressure;Samples;Min_cycle;Max_cycle;Signal;HPM_P1;HPM_P2
2022/12/10 00:00:24;;;;;;;45.10;19.25;;;;;;;1.89;100.00;97178.94;2595547;28;20061;-86
2022/12/10 00:01:59;;;;;;;38.15;17.42;;;;;;;2.05;100.00;97184.75;2595354;28;20357;-86
2022/12/10 00:03:15;;;;;;;38.17;17.90;;;;;;;2.06;100.00;97182.13;2595699;28;20069;-86
2022/12/10 00:04:30;;;;;;;40.20;18.27;;;;;;;2.20;100.00;97184.53;2595654;28;20046;-86
2022/12/10 00:05:46;;;;;;;40.22;18.25;;;;;;;2.29;100.00;97180.06;2594484;28;20467;-87
2022/12/10 00:07:02;;;;;;;41.38;18.02;;;;;;;2.31;100.00;97186.09;2595598;28;20060;-86
2022/12/10 00:08:18;;;;;;;42.80;18.48;;;;;;;2.37;100.00;97189.41;2595622;28;20080;-85
2022/12/10 00:09:33;;;;;;;42.15;18.67;;;;;;;2.13;100.00;97192.38;2595707;28;20497;-85
2022/12/10 00:10:49;;;;;;;43.65;18.90;;;;;;;2.29;100.00;97186.09;2595695;28;20135;-85
2022/12/10 00:12:05;;;;;;;41.55;17.98;;;;;;;2.23;100.00;97186.19;2595597;28;20416;-85
2022/12/10 00:13:20;;;;;;;41.13;18.90;;;;;;;2.22;100.00;97187.94;2595728;28;20570;-86
2022/12/10 00:14:36;;;;;;;39.70;18.42;;;;;;;2.19;100.00;97187.97;2595803;28;20060;-86
2022/12/10 00:15:51;;;;;;;38.08;17.17;;;;;;;2.11;100.00;97182.06;2595489;28;20136;-87
2022/12/10 00:17:07;;;;;;;43.63;18.20;;;;;;;2.16;100.00;97185.41;2595592;28;20061;-88
2022/12/10 00:18:22;;;;;;;37.28;18.55;;;;;;;2.26;100.00;97178.41;2595544;28;20037;-84
2022/12/10 00:19:38;;;;;;;41.58;18.13;;;;;;;2.15;100.00;97185.47;2595687;28;20061;-87
2022/12/10 00:20:54;;;;;;;36.05;17.88;;;;;;;2.24;100.00;97190.50;2595504;28;20111;-84
2022/12/10 00:22:10;;;;;;;39.03;18.30;;;;;;;2.21;100.00;97182.78;2595491;28;20049;-86
2022/12/10 00:23:25;;;;;;;33.42;16.20;;;;;;;2.34;100.00;97184.31;2595594;28;20554;-84
2022/12/10 00:24:41;;;;;;;38.70;18.05;;;;;;;2.18;100.00;97190.56;2595545;28;20223;-90
2022/12/10 00:26:06;;;;;;;39.80;16.85;;;;;;;2.26;100.00;97186.16;2595268;28;20057;-87
2022/12/10 00:27:21;;;;;;;36.42;16.73;;;;;;;2.16;100.00;97185.41;2595213;28;20058;-90
2022/12/10 00:28:37;;;;;;;36.55;16.33;;;;;;;2.25;100.00;97187.88;2595134;28;20499;-84
2022/12/10 00:29:53;;;;;;;35.60;15.57;;;;;;;2.28;100.00;97181.81;2595108;28;20049;-87
2022/12/10 00:31:23;;;;;;;35.60;16.75;;;;;;;2.35;100.00;97188.59;2594996;28;20150;-85
2022/12/10 00:32:39;;;;;;;33.35;14.88;;;;;;;2.37;100.00;97186.81;2595432;28;20127;-85
2022/12/10 00:33:56;;;;;;;33.58;15.90;;;;;;;2.37;100.00;97191.16;2595448;28;20493;-85
2022/12/10 00:35:12;;;;;;;40.13;15.60;;;;;;;2.33;100.00;97187.75;2595669;28;20539;-85
2022/12/10 00:36:42;;;;;;;37.00;16.05;;;;;;;2.33;100.00;97187.75;2595618;28;20049;-84
2022/12/10 00:37:57;;;;;;;32.90;15.57;;;;;;;2.33;100.00;97187.75;2595811;28;20045;-86
2022/12/10 00:39:17;;;;;;;32.08;15.43;;;;;;;2.34;100.00;97186.88;2594966;28;20072;-86
2022/12/10 00:40:33;;;;;;;30.48;15.10;;;;;;;2.35;100.00;97187.75;2594626;28;20127;-85
2022/12/10 00:41:49;;;;;;;31.48;14.73;;;;;;;2.35;100.00;97186.00;2595592;28;20610;-88
2022/12/10 00:43:04;;;;;;;32.40;15.85;;;;;;;2.17;100.00;97184.56;2597733;28;20050;-89
2022/12/10 00:44:20;;;;;;;36.92;17.15;;;;;;;2.05;100.00;97184.75;2597559;28;20049;-89
2022/12/10 00:45:36;;;;;;;36.15;15.85;;;;;;;1.93;100.00;97196.06;2597646;28;20496;-89
2022/12/10 00:46:52;;;;;;;36.38;16.90;;;;;;;2.04;100.00;97190.78;2597916;28;20104;-89
2022/12/10 00:48:08;;;;;;;38.95;16.67;;;;;;;1.98;100.00;97191.72;2597776;28;20041;-89
2022/12/10 00:49:24;;;;;;;41.65;16.83;;;;;;;1.93;100.00;97194.38;2597217;28;20049;-89
2022/12/10 00:50:40;;;;;;;36.75;17.70;;;;;;;1.92;100.00;97200.41;2596292;28;20057;-90
2022/12/10 00:51:56;;;;;;;43.22;18.30;;;;;;;1.95;100.00;97196.91;2597527;28;20053;-89
2022/12/10 00:53:11;;;;;;;38.78;19.17;;;;;;;1.91;100.00;97205.56;2597861;28;20042;-90
2022/12/10 00:54:27;;;;;;;42.03;17.65;;;;;;;1.89;100.00;97194.41;2597087;28;20053;-90
2022/12/10 00:55:43;;;;;;;44.20;18.73;;;;;;;1.94;100.00;97202.94;2597330;28;20045;-89
2022/12/10 00:56:59;;;;;;;44.80;19.02;;;;;;;1.96;100.00;97199.47;2602608;28;20058;-89
2022/12/10 00:58:15;;;;;;;47.42;20.10;;;;;;;1.91;100.00;97200.41;2599695;28;20064;-89
2022/12/10 00:59:33;;;;;;;46.22;21.13;;;;;;;2.02;100.00;97203.69;2601688;28;20056;-90
2022/12/10 01:00:49;;;;;;;49.58;21.17;;;;;;;2.09;100.00;97204.47;2600646;28;20053;-90
2022/12/10 01:02:05;;;;;;;44.42;20.73;;;;;;;2.16;100.00;97197.50;2600563;28;20068;-88
2022/12/10 01:03:21;;;;;;;42.05;19.50;;;;;;;2.24;100.00;97209.41;2599435;28;20119;-89
2022/12/10 01:04:37;;;;;;;48.63;22.08;;;;;;;2.32;100.00;97205.88;2597720;28;20073;-89
2022/12/10 01:05:53;;;;;;;45.60;20.70;;;;;;;2.31;100.00;97217.94;2597470;28;20053;-87
2022/12/10 01:07:10;;;;;;;56.08;22.67;;;;;;;2.33;100.00;97215.34;2597337;28;20087;-87
2022/12/10 01:08:25;;;;;;;44.80;20.70;;;;;;;2.36;100.00;97217.88;2597293;28;20103;-89
2022/12/10 01:09:41;;;;;;;52.15;22.17;;;;;;;2.43;100.00;97219.47;2597819;28;20321;-88
2022/12/10 01:10:56;;;;;;;52.78;22.45;;;;;;;2.38;100.00;97214.41;2597143;28;20157;-89
2022/12/10 01:12:12;;;;;;;51.40;22.63;;;;;;;2.39;100.00;97213.50;2597315;28;20637;-88
2022/12/10 01:13:28;;;;;;;53.60;23.40;;;;;;;2.42;100.00;97212.59;2597396;28;20053;-87
2022/12/10 01:14:43;;;;;;;51.10;22.23;;;;;;;2.42;100.00;97214.34;2597465;28;20103;-89
2022/12/10 01:16:04;;;;;;;48.22;22.27;;;;;;;2.42;100.00;97217.75;2597806;28;20049;-89
2022/12/10 01:17:21;;;;;;;48.05;21.83;;;;;;;2.42;100.00;97214.34;2597489;28;20139;-89
2022/12/10 01:18:37;;;;;;;52.58;22.23;;;;;;;2.20;100.00;97214.63;2597465;28;20053;-88
2022/12/10 01:19:52;;;;;;;46.53;21.05;;;;;;;2.30;100.00;97211.06;2597676;28;20578;-88
2022/12/10 01:21:11;;;;;;;50.97;21.52;;;;;;;2.24;100.00;97211.16;2597409;28;20049;-88
2022/12/10 01:22:27;;;;;;;47.60;21.05;;;;;;;2.34;100.00;97211.88;2597363;28;20106;-91
2022/12/10 01:23:44;;;;;;;48.88;21.52;;;;;;;2.36;100.00;97213.53;2597493;28;20107;-88
2022/12/10 01:25:00;;;;;;;46.00;22.40;;;;;;;2.39;100.00;97210.94;2597509;28;20053;-88
2022/12/10 01:26:18;;;;;;;47.40;21.88;;;;;;;2.40;100.00;97216.94;2597325;28;20077;-86
2022/12/10 01:27:34;;;;;;;44.72;21.05;;;;;;;2.35;100.00;97214.41;2597675;28;20126;-87
2022/12/10 01:28:50;;;;;;;50.33;21.50;;;;;;;2.36;100.00;97212.69;2597514;28;20121;-87
2022/12/10 01:30:07;;;;;;;47.63;22.05;;;;;;;2.26;100.00;97207.66;2597367;28;20076;-87
2022/12/10 01:31:27;;;;;;;42.97;21.27;;;;;;;2.20;100.00;97210.34;2597048;28;20053;-88
2022/12/10 01:32:43;;;;;;;48.33;22.05;;;;;;;2.14;100.00;97209.56;2597288;28;20049;-87
2022/12/10 01:33:59;;;;;;;47.78;22.15;;;;;;;2.04;100.00;97209.69;2597034;28;20052;-88
2022/12/10 01:35:14;;;;;;;53.20;23.13;;;;;;;2.02;100.00;97208.88;2597202;28;20514;-86
2022/12/10 01:36:35;;;;;;;51.20;23.20;;;;;;;2.16;100.00;97210.41;2597462;28;20108;-87
2022/12/10 01:37:51;;;;;;;49.22;21.15;;;;;;;2.23;100.00;97217.16;2597093;28;20073;-87
2022/12/10 01:39:09;;;;;;;48.08;21.70;;;;;;;2.23;100.00;97207.72;2597372;28;20052;-86
2022/12/10 01:40:25;;;;;;;49.50;22.13;;;;;;;2.21;100.00;97209.47;2597064;28;20092;-85
2022/12/10 01:41:48;;;;;;;50.75;22.40;;;;;;;2.30;100.00;97216.22;2597026;28;20103;-90
2022/12/10 01:43:04;;;;;;;50.90;22.58;;;;;;;2.31;100.00;97210.19;2596572;28;20211;-85
2022/12/10 01:44:19;;;;;;;48.60;22.08;;;;;;;2.35;100.00;97211.00;2597198;28;20576;-85
2022/12/10 01:45:35;;;;;;;50.65;22.48;;;;;;;2.38;100.00;97216.97;2597333;28;20049;-86
2022/12/10 01:46:53;;;;;;;51.10;23.20;;;;;;;2.38;100.00;97216.09;2597251;28;20045;-87
2022/12/10 01:48:09;;;;;;;49.58;21.88;;;;;;;2.42;100.00;97209.19;2597107;28;20935;-86
2022/12/10 01:49:32;;;;;;;47.78;21.95;;;;;;;2.31;100.00;97220.50;2597184;28;20072;-86
2022/12/10 01:50:48;;;;;;;49.40;21.45;;;;;;;2.27;100.00;97218.84;2596971;28;20107;-86
2022/12/10 01:52:08;;;;;;;49.22;22.67;;;;;;;2.31;100.00;97217.94;2597024;28;20041;-86
2022/12/10 01:53:24;;;;;;;50.15;22.40;;;;;;;2.20;100.00;97218.09;2597029;28;20655;-85
2022/12/10 01:54:43;;;;;;;47.03;21.45;;;;;;;2.20;100.00;97219.81;2597294;28;20054;-86
2022/12/10 01:55:59;;;;;;;51.15;22.35;;;;;;;2.24;100.00;97221.50;2596905;28;20057;-85
2022/12/10 01:57:24;;;;;;;50.45;23.50;;;;;;;2.32;100.00;97224.78;2596998;28;20124;-85
2022/12/10 01:58:40;;;;;;;49.55;23.17;;;;;;;2.27;100.00;97224.03;2597046;28;20176;-86
2022/12/10 01:59:59;;;;;;;54.13;23.13;;;;;;;2.21;100.00;97224.97;2596529;28;20599;-88
2022/12/10 02:01:26;;;;;;;51.45;22.05;;;;;;;2.29;100.00;97227.44;2596553;28;20061;-86
2022/12/10 02:02:58;;;;;;;48.42;21.70;;;;;;;2.33;100.00;97228.25;2596571;28;20547;-85
2022/12/10 02:04:24;;;;;;;41.55;20.25;;;;;;;2.37;100.00;97227.31;2596687;28;20128;-86
2022/12/10 02:05:43;;;;;;;51.15;21.00;;;;;;;2.25;100.00;97228.34;2596862;28;20050;-86
2022/12/10 02:07:06;;;;;;;46.60;21.25;;;;;;;2.30;100.00;97231.72;2596703;28;20059;-84
2022/12/10 02:08:32;;;;;;;47.90;21.00;;;;;;;2.33;100.00;97229.09;2596760;28;20057;-87
2022/12/10 02:10:13;;;;;;;47.50;20.75;;;;;;;2.06;100.00;97227.75;2596864;28;20531;-88
2022/12/10 02:11:37;;;;;;;45.80;19.75;;;;;;;2.24;100.00;97231.81;2596589;28;20045;-84
2022/12/10 02:13:17;;;;;;;45.63;20.60;;;;;;;2.35;100.00;97232.50;2599952;28;20126;-88
2022/12/10 02:14:37;;;;;;;47.20;20.77;;;;;;;2.43;100.00;97231.53;2598411;28;20081;-87
2022/12/10 02:16:05;;;;;;;40.42;19.58;;;;;;;2.31;100.00;97227.41;2596648;28;20057;-85
2022/12/10 02:17:39;;;;;;;43.60;19.15;;;;;;;2.16;100.00;97234.47;2596453;28;20077;-87
2022/12/10 02:19:15;;;;;;;41.05;19.00;;;;;;;2.26;100.00;97235.22;2596493;28;20094;-86
2022/12/10 02:20:52;;;;;;;43.65;18.10;;;;;;;2.24;100.00;97239.56;2596519;28;20115;-88
2022/12/10 02:22:09;;;;;;;44.67;18.67;;;;;;;2.05;100.00;97239.81;2596484;28;20128;-87
2022/12/10 02:23:30;;;;;;;35.40;16.90;;;;;;;1.93;100.00;97239.97;2596370;28;20141;-87
2022/12/10 02:24:50;;;;;;;41.83;17.58;;;;;;;1.94;100.00;97244.25;2596746;28;20053;-87
2022/12/10 02:26:27;;;;;;;42.42;19.38;;;;;;;1.77;100.00;97244.47;2596564;28;20084;-87
2022/12/10 02:28:01;;;;;;;38.50;17.60;;;;;;;1.90;100.00;97246.03;2596556;28;20124;-88
2022/12/10 02:29:23;;;;;;;41.20;18.40;;;;;;;1.82;100.00;97248.72;2596654;28;20045;-84
2022/12/10 02:30:41;;;;;;;41.75;18.58;;;;;;;1.94;100.00;97244.25;2596405;28;20054;-87
2022/12/10 02:32:02;;;;;;;40.20;18.70;;;;;;;2.06;100.00;97243.25;2596032;28;20056;-87
2022/12/10 02:33:19;;;;;;;39.15;17.58;;;;;;;2.08;100.00;97236.34;2596489;28;20481;-84
2022/12/10 02:34:40;;;;;;;41.20;18.63;;;;;;;2.14;100.00;97243.97;2596402;28;20252;-89
2022/12/10 02:35:58;;;;;;;42.28;19.33;;;;;;;2.19;100.00;97236.19;2596593;28;20473;-87
2022/12/10 02:37:24;;;;;;;39.97;17.95;;;;;;;2.09;100.00;97246.63;2596462;28;20073;-87
2022/12/10 02:38:41;;;;;;;43.22;18.23;;;;;;;2.21;100.00;97237.00;2596811;28;20458;-89
2022/12/10 02:40:02;;;;;;;45.85;18.88;;;;;;;2.33;100.00;97238.59;2596503;28;20076;-86
2022/12/10 02:41:23;;;;;;;39.38;18.33;;;;;;;2.34;100.00;97235.97;2596292;28;20054;-86
2022/12/10 02:42:42;;;;;;;43.35;18.73;;;;;;;2.02;100.00;97247.59;2596502;28;20049;-90
2022/12/10 02:44:01;;;;;;;37.22;17.90;;;;;;;1.98;100.00;97251.09;2596575;28;20488;-86
2022/12/10 02:45:19;;;;;;;43.05;18.48;;;;;;;1.86;100.00;97246.91;2596517;28;20176;-88
2022/12/10 02:46:38;;;;;;;41.22;19.65;;;;;;;2.00;100.00;97248.47;2596458;28;20060;-88
2022/12/10 02:47:58;;;;;;;42.60;19.20;;;;;;;2.00;100.00;97248.47;2596596;28;20494;-87
2022/12/10 02:49:15;;;;;;;44.78;20.08;;;;;;;2.11;100.00;97250.06;2596557;28;20544;-87
2022/12/10 02:50:31;;;;;;;47.20;20.45;;;;;;;2.10;100.00;97250.06;2596456;28;20075;-87
2022/12/10 02:51:47;;;;;;;42.40;18.83;;;;;;;2.33;100.00;97242.00;2596401;28;20522;-86
2022/12/10 02:53:03;;;;;;;44.45;19.65;;;;;;;2.21;100.00;97249.91;2596595;28;20061;-87
2022/12/10 02:54:41;;;;;;;42.15;18.20;;;;;;;2.26;100.00;97243.81;2596706;28;20389;-86
2022/12/10 02:56:19;;;;;;;41.10;19.27;;;;;;;1.98;100.00;97251.09;2596667;28;20307;-87
2022/12/10 02:57:55;;;;;;;40.95;18.83;;;;;;;2.09;100.00;97241.47;2596522;28;20499;-87
2022/12/10 02:59:17;;;;;;;43.10;18.00;;;;;;;2.24;100.00;97243.00;2596181;28;20069;-86
2022/12/10 03:00:46;;;;;;;42.17;19.65;;;;;;;1.95;100.00;97241.66;2595935;28;20599;-89
2022/12/10 03:02:20;;;;;;;41.83;17.67;;;;;;;1.87;100.00;97247.78;2596347;28;20545;-88
2022/12/10 03:03:53;;;;;;;45.00;18.65;;;;;;;1.80;100.00;97257.34;2596414;28;20053;-86
2022/12/10 03:05:22;;;;;;;41.85;18.20;;;;;;;1.65;100.00;97254.06;2595701;28;20092;-87
2022/12/10 03:06:46;;;;;;;45.80;18.70;;;;;;;1.72;100.00;97249.69;2596143;28;20135;-87
2022/12/10 03:08:10;;;;;;;47.80;20.10;;;;;;;1.72;100.00;97251.41;2596190;28;20056;-86
2022/12/10 03:09:34;;;;;;;45.22;20.15;;;;;;;2.01;100.00;97253.63;2596020;28;20467;-87
2022/12/10 03:10:49;;;;;;;43.63;19.38;;;;;;;1.91;100.00;97255.47;2596221;28;20524;-86
2022/12/10 03:12:31;;;;;;;47.35;20.40;;;;;;;2.15;100.00;97252.59;2596209;28;20045;-88
2022/12/10 03:14:01;;;;;;;45.85;19.35;;;;;;;2.29;100.00;97252.38;2596124;28;20421;-87
2022/12/10 03:15:19;;;;;;;46.08;20.05;;;;;;;2.23;100.00;97255.91;2596392;28;20073;-87
2022/12/10 03:16:46;;;;;;;46.42;19.55;;;;;;;2.35;100.00;97253.16;2596442;28;20532;-87
2022/12/10 03:18:04;;;;;;;47.13;19.35;;;;;;;2.22;100.00;97251.63;2595341;28;20107;-87
2022/12/10 03:19:23;;;;;;;45.78;20.17;;;;;;;2.32;100.00;97247.22;2595546;28;20207;-87
2022/12/10 03:20:44;;;;;;;43.33;20.73;;;;;;;2.22;100.00;97249.03;2596076;28;20049;-86
2022/12/10 03:22:02;;;;;;;48.78;20.58;;;;;;;2.17;100.00;97251.72;2595846;28;20132;-87
2022/12/10 03:23:18;;;;;;;43.15;19.90;;;;;;;2.13;100.00;97246.59;2596078;28;20045;-87
2022/12/10 03:24:35;;;;;;;47.83;19.70;;;;;;;2.04;100.00;97245.84;2596097;28;20049;-87
2022/12/10 03:25:51;;;;;;;44.17;18.70;;;;;;;2.02;100.00;97255.34;2596151;28;20045;-88
2022/12/10 03:27:09;;;;;;;47.80;20.42;;;;;;;2.02;100.00;97250.16;2595978;28;20080;-87
2022/12/10 03:28:26;;;;;;;44.13;19.08;;;;;;;1.97;100.00;97251.97;2595936;28;20053;-87
2022/12/10 03:29:52;;;;;;;48.78;20.13;;;;;;;2.01;100.00;97251.06;2595735;28;20064;-86
2022/12/10 03:31:10;;;;;;;43.55;17.95;;;;;;;2.14;100.00;97250.88;2596045;28;20072;-88
2022/12/10 03:32:28;;;;;;;46.20;20.48;;;;;;;2.17;100.00;97248.25;2596089;28;20057;-86
2022/12/10 03:33:45;;;;;;;45.58;19.65;;;;;;;2.19;100.00;97247.38;2596119;28;20056;-87
2022/12/10 03:35:01;;;;;;;42.28;19.33;;;;;;;2.21;100.00;97250.78;2596024;28;20064;-91
2022/12/10 03:36:18;;;;;;;40.03;18.48;;;;;;;2.16;100.00;97251.72;2595820;28;20615;-88
2022/12/10 03:37:34;;;;;;;42.40;18.75;;;;;;;2.21;100.00;97247.34;2596003;28;20176;-87
2022/12/10 03:38:51;;;;;;;41.67;19.42;;;;;;;2.06;100.00;97251.84;2596091;28;20524;-88
2022/12/10 03:40:08;;;;;;;43.38;19.17;;;;;;;1.93;100.00;97251.16;2595962;28;20045;-87
2022/12/10 03:41:24;;;;;;;45.65;19.38;;;;;;;2.01;100.00;97248.47;2595875;28;20053;-87
2022/12/10 03:42:39;;;;;;;39.72;18.15;;;;;;;1.92;100.00;97248.56;2595740;28;20057;-88
2022/12/10 03:43:57;;;;;;;46.03;19.85;;;;;;;2.00;100.00;97245.91;2595661;28;20187;-87
2022/12/10 03:45:13;;;;;;;44.15;18.95;;;;;;;2.06;100.00;97246.66;2595674;28;20054;-87
2022/12/10 03:46:30;;;;;;;39.97;18.40;;;;;;;2.21;100.00;97242.16;2595655;28;20488;-87
2022/12/10 03:47:46;;;;;;;38.00;17.27;;;;;;;2.17;100.00;97246.53;2595718;28;20069;-87
2022/12/10 03:49:02;;;;;;;42.90;18.98;;;;;;;2.24;100.00;97240.41;2595656;28;20064;-87
2022/12/10 03:50:17;;;;;;;40.63;18.20;;;;;;;2.04;100.00;97235.50;2595538;28;20469;-88
2022/12/10 03:51:33;;;;;;;44.72;17.85;;;;;;;2.28;100.00;97241.22;2595439;28;20052;-87
2022/12/10 03:52:49;;;;;;;41.10;17.05;;;;;;;2.24;100.00;97235.25;2595652;28;20064;-87
2022/12/10 03:54:05;;;;;;;41.72;17.13;;;;;;;2.30;100.00;97230.84;2595723;28;20045;-87
2022/12/10 03:55:20;;;;;;;38.28;15.95;;;;;;;2.32;100.00;97232.53;2595815;28;20067;-87
2022/12/10 03:56:36;;;;;;;40.90;16.98;;;;;;;2.38;100.00;97235.06;2595544;28;20413;-87
2022/12/10 03:57:51;;;;;;;39.15;18.30;;;;;;;2.37;100.00;97238.50;2595841;28;20053;-87
2022/12/10 03:59:07;;;;;;;41.85;18.08;;;;;;;2.34;100.00;97237.69;2595424;28;20049;-88
2022/12/10 04:00:23;;;;;;;41.22;17.70;;;;;;;2.22;100.00;97233.53;2595391;28;20076;-86
2022/12/10 04:01:38;;;;;;;41.15;17.65;;;;;;;2.29;100.00;97234.31;2595703;28;20483;-87
2022/12/10 04:02:54;;;;;;;38.65;17.25;;;;;;;2.24;100.00;97230.06;2595351;28;20464;-88
2022/12/10 04:04:10;;;;;;;38.05;17.35;;;;;;;2.33;100.00;97229.09;2595621;28;20130;-86
2022/12/10 04:05:25;;;;;;;40.45;18.10;;;;;;;2.32;100.00;97237.72;2595601;28;20057;-86
2022/12/10 04:06:41;;;;;;;38.80;18.15;;;;;;;2.36;100.00;97235.94;2599695;28;20544;-85
2022/12/10 04:07:57;;;;;;;41.83;18.20;;;;;;;2.37;100.00;97235.91;2598770;28;20057;-87
2022/12/10 04:09:14;;;;;;;38.38;17.88;;;;;;;2.37;100.00;97230.75;2595517;28;20049;-86
2022/12/10 04:10:35;;;;;;;37.35;18.05;;;;;;;2.26;100.00;97227.47;2595280;28;20058;-87
2022/12/10 04:11:55;;;;;;;45.67;19.70;;;;;;;2.09;100.00;97227.72;2595736;28;20615;-86
2022/12/10 04:16:29;;;;;;;41.10;18.77;;;;;;;1.97;100.00;97223.56;2595661;28;20058;-89
2022/12/10 04:17:44;;;;;;;42.42;18.40;;;;;;;2.05;100.00;97223.47;2595156;28;20128;-86
2022/12/10 04:19:18;;;;;;;40.20;18.42;;;;;;;2.03;100.00;97233.81;2595398;28;20536;-87
2022/12/10 04:26:52;;;;;;;40.50;17.67;;;;;;;1.81;100.00;97223.75;2595418;28;20061;-86
2022/12/10 04:28:07;;;;;;;37.42;16.63;;;;;;;1.78;100.00;97228.94;2595731;28;20411;-85
2022/12/10 04:29:29;;;;;;;44.17;19.33;;;;;;;1.88;100.00;97221.94;2595855;28;20053;-86
2022/12/10 04:30:44;;;;;;;39.58;18.70;;;;;;;2.08;100.00;97223.41;2595609;28;20472;-86
2022/12/10 04:32:00;;;;;;;40.42;18.45;;;;;;;2.15;100.00;97226.78;2595404;28;20105;-85
2022/12/10 04:33:15;;;;;;;42.85;18.52;;;;;;;2.19;100.00;97224.13;2595548;28;20041;-85
2022/12/10 04:34:31;;;;;;;46.35;19.02;;;;;;;2.32;100.00;97221.38;2595681;28;20063;-85
2022/12/10 04:35:47;;;;;;;45.72;20.20;;;;;;;2.24;100.00;97221.50;2595703;28;20049;-91
2022/12/10 04:37:03;;;;;;;43.72;19.15;;;;;;;2.28;100.00;97217.97;2595618;28;20694;-86
2022/12/10 04:38:18;;;;;;;42.55;19.40;;;;;;;2.34;100.00;97222.19;2595348;28;20056;-86
2022/12/10 04:39:34;;;;;;;42.53;17.70;;;;;;;2.33;100.00;97223.91;2595781;28;20140;-87
2022/12/10 04:40:50;;;;;;;42.63;17.52;;;;;;;2.30;100.00;97217.94;2595323;28;20096;-87
2022/12/10 04:42:06;;;;;;;41.58;18.63;;;;;;;2.34;100.00;97219.63;2595538;28;20049;-86
2022/12/10 04:43:22;;;;;;;42.67;18.98;;;;;;;2.33;100.00;97215.34;2595607;28;20136;-86
2022/12/10 04:44:38;;;;;;;42.55;19.00;;;;;;;2.24;100.00;97213.75;2595614;28;20053;-86
2022/12/10 04:45:56;;;;;;;42.58;18.98;;;;;;;2.25;100.00;97207.69;2595146;28;20116;-86
2022/12/10 04:47:12;;;;;;;44.78;19.60;;;;;;;2.32;100.00;97213.63;2595573;28;20100;-85
2022/12/10 04:48:27;;;;;;;41.78;19.00;;;;;;;2.06;100.00;97207.94;2595555;28;20049;-86
2022/12/10 04:49:43;;;;;;;42.63;19.58;;;;;;;2.16;100.00;97208.66;2595157;28;20056;-86
2022/12/10 04:50:58;;;;;;;45.50;20.38;;;;;;;2.20;100.00;97209.47;2595269;28;20046;-86
2022/12/10 04:52:15;;;;;;;44.70;19.58;;;;;;;2.28;100.00;97211.94;2595234;28;20532;-85
2022/12/10 04:53:31;;;;;;;43.00;18.75;;;;;;;2.18;100.00;97212.09;2595455;28;20061;-86
2022/12/10 04:54:47;;;;;;;44.83;20.27;;;;;;;2.11;100.00;97211.34;2595379;28;20526;-86
2022/12/10 04:56:04;;;;;;;40.95;19.20;;;;;;;2.19;100.00;97212.94;2595475;28;20437;-87
2022/12/10 04:57:20;;;;;;;39.05;18.75;;;;;;;2.13;100.00;97213.88;2594823;28;20119;-86
2022/12/10 04:58:36;;;;;;;41.88;19.45;;;;;;;2.15;100.00;97209.53;2595144;28;20100;-87
2022/12/10 04:59:51;;;;;;;41.88;18.27;;;;;;;2.05;100.00;97216.56;2594987;28;20500;-87
2022/12/10 05:01:09;;;;;;;39.17;18.40;;;;;;;2.11;100.00;97219.09;2595315;28;20057;-85
2022/12/10 05:02:24;;;;;;;35.85;18.00;;;;;;;2.15;100.00;97216.44;2595189;28;20054;-86
2022/12/10 05:03:41;;;;;;;42.17;18.48;;;;;;;2.21;100.00;97224.97;2595430;28;20096;-86
2022/12/10 05:04:56;;;;;;;39.47;18.38;;;;;;;2.23;100.00;97220.63;2595349;28;20086;-87
2022/12/10 05:06:14;;;;;;;40.50;19.30;;;;;;;2.22;100.00;97223.22;2595732;28;20050;-86
2022/12/10 05:07:30;;;;;;;43.70;18.25;;;;;;;2.25;100.00;97228.34;2595410;28;20090;-89
2022/12/10 05:08:46;;;;;;;39.63;17.08;;;;;;;2.29;100.00;97232.59;2595096;28;20046;-88
2022/12/10 05:10:02;;;;;;;40.03;17.92;;;;;;;2.05;100.00;97224.31;2595117;28;20085;-88
2022/12/10 05:11:20;;;;;;;42.05;18.13;;;;;;;2.05;100.00;97221.72;2595539;28;20041;-87
2022/12/10 05:12:36;;;;;;;42.33;19.10;;;;;;;1.92;100.00;97217.59;2595449;28;20492;-89
2022/12/10 05:13:52;;;;;;;44.80;19.83;;;;;;;1.96;100.00;97217.53;2595559;28;20104;-87
2022/12/10 05:15:08;;;;;;;50.38;20.33;;;;;;;2.01;100.00;97219.19;2595368;28;20073;-88
2022/12/10 05:16:27;;;;;;;50.08;20.75;;;;;;;2.04;100.00;97219.19;2595368;28;20458;-87
2022/12/10 05:17:42;;;;;;;44.20;20.65;;;;;;;2.07;100.00;97213.97;2595524;28;20049;-87
2022/12/10 05:18:58;;;;;;;49.55;20.27;;;;;;;2.03;100.00;97213.16;2595147;28;20451;-86
2022/12/10 05:20:14;;;;;;;39.03;18.20;;;;;;;2.03;100.00;97222.66;2595273;28;20224;-87
2022/12/10 05:24:38;;;;;;;39.92;18.63;;;;;;;2.13;100.00;97223.38;2595529;28;20049;-88
2022/12/10 05:26:19;;;;;;;43.60;18.33;;;;;;;2.05;100.00;97228.63;2595557;28;20129;-87
2022/12/10 05:27:34;;;;;;;38.65;17.88;;;;;;;1.97;100.00;97232.16;2593256;28;20053;-88
2022/12/10 05:28:55;;;;;;;44.13;19.05;;;;;;;1.70;100.00;97235.94;2597009;28;20111;-87
2022/12/10 05:30:11;;;;;;;42.80;18.75;;;;;;;1.92;100.00;97238.25;2597252;28;20053;-88
2022/12/10 05:31:29;;;;;;;45.17;19.08;;;;;;;1.90;100.00;97234.84;2597262;28;20129;-88
2022/12/10 05:32:44;;;;;;;42.70;17.55;;;;;;;1.87;100.00;97240.03;2596699;28;20134;-87
2022/12/10 05:34:00;;;;;;;43.65;19.00;;;;;;;2.15;100.00;97243.09;2597254;28;20526;-87
2022/12/10 05:35:16;;;;;;;46.00;19.25;;;;;;;2.25;100.00;97236.94;2597273;28;20061;-88
2022/12/10 05:36:34;;;;;;;42.35;18.73;;;;;;;2.26;100.00;97238.66;2597072;28;20049;-86
2022/12/10 05:37:50;;;;;;;38.75;17.13;;;;;;;1.97;100.00;97241.66;2597026;28;20127;-87
2022/12/10 05:39:05;;;;;;;41.05;16.98;;;;;;;1.82;100.00;97242.69;2597381;28;20053;-86
2022/12/10 05:40:21;;;;;;;43.83;18.52;;;;;;;2.04;100.00;97245.00;2597071;28;20381;-86
2022/12/10 05:41:38;;;;;;;44.75;17.98;;;;;;;1.77;100.00;97240.16;2597295;28;20351;-85
2022/12/10 05:42:54;;;;;;;42.42;18.80;;;;;;;1.85;100.00;97241.78;2597094;28;20050;-85
2022/12/10 05:44:10;;;;;;;37.30;17.23;;;;;;;1.60;100.00;97236.94;2597232;28;20064;-86
2022/12/10 05:45:25;;;;;;;37.28;18.30;;;;;;;1.71;100.00;97241.94;2597012;28;20103;-86
2022/12/10 05:46:41;;;;;;;41.60;17.83;;;;;;;1.80;100.00;97247.84;2597019;28;20060;-86
2022/12/10 05:47:57;;;;;;;43.00;18.52;;;;;;;1.75;100.00;97246.22;2597066;28;20502;-86
2022/12/10 05:49:12;;;;;;;44.83;18.98;;;;;;;1.86;100.00;97246.09;2597222;28;20065;-86
2022/12/10 05:50:28;;;;;;;41.45;17.63;;;;;;;1.79;100.00;97246.16;2596863;28;20053;-86
2022/12/10 05:51:43;;;;;;;45.42;18.50;;;;;;;1.86;100.00;97243.50;2597028;28;20049;-88
2022/12/10 05:52:59;;;;;;;48.10;19.13;;;;;;;1.82;100.00;97246.13;2596972;28;20045;-87
2022/12/10 05:54:15;;;;;;;44.72;18.42;;;;;;;1.95;100.00;97246.81;2597159;28;20064;-87
2022/12/10 05:55:32;;;;;;;46.00;19.23;;;;;;;1.79;100.00;97251.31;2597011;28;20058;-87
2022/12/10 05:56:48;;;;;;;45.70;19.52;;;;;;;1.85;100.00;97252.13;2596992;28;20488;-90
2022/12/10 05:58:03;;;;;;;47.38;19.88;;;;;;;1.92;100.00;97251.16;2597017;28;20050;-87
2022/12/10 05:59:19;;;;;;;39.70;17.08;;;;;;;1.66;100.00;97255.78;2596896;28;20050;-88
2022/12/10 06:00:35;;;;;;;45.65;19.05;;;;;;;1.78;100.00;97253.91;2596301;28;20175;-88
2022/12/10 06:01:50;;;;;;;47.42;19.15;;;;;;;2.01;100.00;97256.22;2596459;28;20806;-87
2022/12/10 06:03:07;;;;;;;40.80;18.42;;;;;;;1.91;100.00;97259.78;2596412;28;20092;-88
2022/12/10 06:04:22;;;;;;;44.22;18.52;;;;;;;1.89;100.00;97256.38;2596427;28;20077;-87
2022/12/10 06:05:39;;;;;;;41.60;19.45;;;;;;;2.08;100.00;97263.00;2596644;28;20471;-89
2022/12/10 06:06:55;;;;;;;41.97;19.13;;;;;;;2.11;100.00;97262.97;2596591;28;20045;-88
2022/12/10 06:08:11;;;;;;;46.47;19.70;;;;;;;2.16;100.00;97260.31;2596509;28;20149;-86
2022/12/10 06:09:26;;;;;;;41.70;18.77;;;;;;;1.87;100.00;97266.69;2595867;28;20488;-89
2022/12/10 06:10:42;;;;;;;48.58;19.63;;;;;;;1.73;100.00;97264.28;2594307;28;20041;-86
2022/12/10 06:11:58;;;;;;;51.50;21.67;;;;;;;1.93;100.00;97273.50;2596334;28;20053;-86
2022/12/10 06:13:13;;;;;;;49.03;19.63;;;;;;;2.04;100.00;97278.56;2596496;28;20045;-88